DLH83V EDDF-LPPR
Flight info
| Callsign | DLH83V |
|---|---|
| Flight time | 2h 25m |
| Altitude | 35000 |
| Route | ANEKI2L/18 ANEKI Y163 HERBI Y164 MOPAN DCT LUTIX DCT BENOT DCT NEMOS DCT NINTU DCT MEBAK DCT REPSI DCT LERGA DCT MINSO DCT NARAK DCT AGN DCT PIPOR L866 PPN DCT MIRPO DCT DGO DCT NEA DCT ZMR L155 ADORO DCT INKIT |
| Aircraft | A21N/M-SDE2E3FGHIJ1RWXY/LB1 |
Departure
| Time | 2026-04-14 10:18 |
|---|---|
| Airport | Frankfurt Main Airport (EDDF) |
Arrival
| Time | 2026-04-14 12:44 |
|---|---|
| Airport | Francisco de Sá Carneiro Airport (LPPR) |
| Time | Latitude | Longitude | Altitude | Speed | Heading |
|---|---|---|---|---|---|
| 2026-04-14 09:42 | 50.04533 | 8.56585 | 361 ft | 0 kts | 115° |
| 2026-04-14 10:04 | 50.04540 | 8.56561 | 364 ft | 4 kts | 115° |
| 2026-04-14 10:04 | 50.04552 | 8.56523 | 363 ft | 4 kts | 118° |
| 2026-04-14 10:04 | 50.04567 | 8.56488 | 363 ft | 4 kts | 132° |
| 2026-04-14 10:04 | 50.04585 | 8.56468 | 365 ft | 4 kts | 182° |
| 2026-04-14 10:05 | 50.04588 | 8.56467 | 361 ft | 3 kts | 205° |
| 2026-04-14 10:05 | 50.04574 | 8.56457 | 362 ft | 0 kts | 205° |
| 2026-04-14 10:09 | 50.04573 | 8.56456 | 361 ft | 1 kts | 205° |
| 2026-04-14 10:09 | 50.04557 | 8.56444 | 365 ft | 4 kts | 204° |
| 2026-04-14 10:09 | 50.04530 | 8.56418 | 367 ft | 6 kts | 225° |
| 2026-04-14 10:09 | 50.04509 | 8.56355 | 366 ft | 8 kts | 250° |
| 2026-04-14 10:10 | 50.04488 | 8.56265 | 361 ft | 10 kts | 250° |
| 2026-04-14 10:10 | 50.04461 | 8.56154 | 363 ft | 12 kts | 249° |
| 2026-04-14 10:10 | 50.04416 | 8.56040 | 365 ft | 13 kts | 203° |
| 2026-04-14 10:10 | 50.04332 | 8.56061 | 363 ft | 11 kts | 158° |
| 2026-04-14 10:11 | 50.04262 | 8.56032 | 364 ft | 13 kts | 242° |
| 2026-04-14 10:11 | 50.04229 | 8.55895 | 360 ft | 14 kts | 249° |
| 2026-04-14 10:11 | 50.04192 | 8.55741 | 360 ft | 16 kts | 249° |
| 2026-04-14 10:11 | 50.04151 | 8.55571 | 359 ft | 18 kts | 249° |
| 2026-04-14 10:12 | 50.04122 | 8.55449 | 361 ft | 19 kts | 250° |
| 2026-04-14 10:12 | 50.04074 | 8.55250 | 360 ft | 20 kts | 249° |
| 2026-04-14 10:12 | 50.04023 | 8.55035 | 365 ft | 22 kts | 250° |
| 2026-04-14 10:12 | 50.03950 | 8.54729 | 357 ft | 24 kts | 250° |
| 2026-04-14 10:13 | 50.03916 | 8.54587 | 357 ft | 20 kts | 250° |
| 2026-04-14 10:13 | 50.03867 | 8.54388 | 355 ft | 19 kts | 240° |
| 2026-04-14 10:13 | 50.03797 | 8.54212 | 358 ft | 20 kts | 251° |
| 2026-04-14 10:13 | 50.03748 | 8.54007 | 356 ft | 21 kts | 249° |
| 2026-04-14 10:14 | 50.03706 | 8.53829 | 353 ft | 17 kts | 249° |
| 2026-04-14 10:14 | 50.03663 | 8.53653 | 350 ft | 18 kts | 249° |
| 2026-04-14 10:14 | 50.03617 | 8.53472 | 351 ft | 19 kts | 249° |
| 2026-04-14 10:14 | 50.03570 | 8.53277 | 348 ft | 20 kts | 249° |
| 2026-04-14 10:15 | 50.03528 | 8.53100 | 352 ft | 17 kts | 249° |
| 2026-04-14 10:15 | 50.03495 | 8.52961 | 345 ft | 12 kts | 250° |
| 2026-04-14 10:15 | 50.03462 | 8.52837 | 346 ft | 13 kts | 246° |
| 2026-04-14 10:15 | 50.03427 | 8.52702 | 338 ft | 13 kts | 249° |
| 2026-04-14 10:16 | 50.03384 | 8.52598 | 339 ft | 10 kts | 199° |
| 2026-04-14 10:16 | 50.03354 | 8.52593 | 341 ft | 0 kts | 179° |
| 2026-04-14 10:17 | 50.03304 | 8.52594 | 337 ft | 32 kts | 179° |
| 2026-04-14 10:18 | 50.01783 | 8.52608 | 340 ft | 177 kts | 179° |
| 2026-04-14 10:18 | 50.00465 | 8.52625 | 820 ft | 188 kts | 179° |
| 2026-04-14 10:18 | 49.99176 | 8.52694 | 1712 ft | 186 kts | 176° |
| 2026-04-14 10:19 | 49.97832 | 8.52826 | 2344 ft | 201 kts | 178° |
| 2026-04-14 10:19 | 49.96377 | 8.52921 | 3026 ft | 216 kts | 177° |
| 2026-04-14 10:19 | 49.94828 | 8.53025 | 3714 ft | 229 kts | 176° |
| 2026-04-14 10:19 | 49.93191 | 8.53135 | 4438 ft | 239 kts | 177° |
| 2026-04-14 10:20 | 49.91515 | 8.53247 | 5339 ft | 243 kts | 177° |
| 2026-04-14 10:20 | 49.89816 | 8.53361 | 6245 ft | 245 kts | 178° |
| 2026-04-14 10:20 | 49.88119 | 8.53474 | 6825 ft | 248 kts | 178° |
| 2026-04-14 10:20 | 49.86372 | 8.53591 | 7073 ft | 248 kts | 178° |
| 2026-04-14 10:21 | 49.84658 | 8.53705 | 7591 ft | 252 kts | 179° |
| 2026-04-14 10:21 | 49.82902 | 8.53823 | 8486 ft | 252 kts | 179° |
| 2026-04-14 10:21 | 49.81154 | 8.53940 | 9419 ft | 251 kts | 179° |
| 2026-04-14 10:21 | 49.79407 | 8.54057 | 10302 ft | 251 kts | 179° |
| 2026-04-14 10:22 | 49.77660 | 8.54096 | 11060 ft | 254 kts | 184° |
| 2026-04-14 10:22 | 49.75817 | 8.53881 | 11454 ft | 274 kts | 187° |
| 2026-04-14 10:22 | 49.73837 | 8.53603 | 11768 ft | 297 kts | 186° |
| 2026-04-14 10:22 | 49.71709 | 8.53307 | 12110 ft | 317 kts | 186° |
| 2026-04-14 10:23 | 49.69468 | 8.53004 | 12720 ft | 326 kts | 186° |
| 2026-04-14 10:23 | 49.67193 | 8.52701 | 13508 ft | 330 kts | 186° |
| 2026-04-14 10:23 | 49.64889 | 8.52396 | 14294 ft | 334 kts | 186° |
| 2026-04-14 10:23 | 49.62570 | 8.52089 | 15030 ft | 336 kts | 186° |
| 2026-04-14 10:24 | 49.60220 | 8.51779 | 15759 ft | 340 kts | 186° |
| 2026-04-14 10:24 | 49.57854 | 8.51468 | 16494 ft | 343 kts | 186° |
| 2026-04-14 10:24 | 49.55457 | 8.51153 | 17215 ft | 347 kts | 186° |
| 2026-04-14 10:24 | 49.53036 | 8.50835 | 17941 ft | 351 kts | 186° |
| 2026-04-14 10:25 | 49.50594 | 8.50515 | 18637 ft | 354 kts | 186° |
| 2026-04-14 10:25 | 49.48121 | 8.50191 | 19253 ft | 357 kts | 186° |
| 2026-04-14 10:25 | 49.45660 | 8.49869 | 19857 ft | 360 kts | 186° |
| 2026-04-14 10:25 | 49.43150 | 8.49541 | 20462 ft | 364 kts | 186° |
| 2026-04-14 10:26 | 49.40618 | 8.49209 | 21069 ft | 367 kts | 186° |
| 2026-04-14 10:26 | 49.38062 | 8.48875 | 21672 ft | 370 kts | 186° |
| 2026-04-14 10:26 | 49.35481 | 8.48537 | 22282 ft | 373 kts | 186° |
| 2026-04-14 10:26 | 49.32908 | 8.48202 | 22869 ft | 376 kts | 186° |
| 2026-04-14 10:27 | 49.30262 | 8.47857 | 23459 ft | 379 kts | 186° |
| 2026-04-14 10:27 | 49.27658 | 8.47519 | 23979 ft | 381 kts | 186° |
| 2026-04-14 10:27 | 49.25002 | 8.47175 | 24460 ft | 384 kts | 186° |
| 2026-04-14 10:27 | 49.22336 | 8.46827 | 24937 ft | 386 kts | 186° |
| 2026-04-14 10:28 | 49.19649 | 8.46477 | 25395 ft | 389 kts | 186° |
| 2026-04-14 10:28 | 49.16939 | 8.46125 | 25848 ft | 391 kts | 186° |
| 2026-04-14 10:28 | 49.14221 | 8.45773 | 26300 ft | 394 kts | 186° |
| 2026-04-14 10:28 | 49.11477 | 8.45417 | 26747 ft | 396 kts | 186° |
| 2026-04-14 10:29 | 49.08721 | 8.45061 | 27185 ft | 399 kts | 186° |
| 2026-04-14 10:29 | 49.05984 | 8.44597 | 27607 ft | 400 kts | 191° |
| 2026-04-14 10:29 | 49.03255 | 8.43720 | 28029 ft | 402 kts | 194° |
| 2026-04-14 10:29 | 49.00520 | 8.42752 | 28442 ft | 404 kts | 194° |
| 2026-04-14 10:30 | 48.97770 | 8.41775 | 28854 ft | 406 kts | 194° |
| 2026-04-14 10:30 | 48.95011 | 8.40805 | 29257 ft | 408 kts | 194° |
| 2026-04-14 10:30 | 48.92233 | 8.39835 | 29656 ft | 410 kts | 194° |
| 2026-04-14 10:30 | 48.89443 | 8.38863 | 30034 ft | 413 kts | 194° |
| 2026-04-14 10:31 | 48.86637 | 8.37890 | 30374 ft | 415 kts | 194° |
| 2026-04-14 10:31 | 48.83811 | 8.36911 | 30644 ft | 418 kts | 194° |
| 2026-04-14 10:31 | 48.80963 | 8.35927 | 30904 ft | 421 kts | 194° |
| 2026-04-14 10:31 | 48.78093 | 8.34936 | 31161 ft | 424 kts | 194° |
| 2026-04-14 10:32 | 48.75211 | 8.33892 | 31403 ft | 427 kts | 195° |
| 2026-04-14 10:32 | 48.72346 | 8.32834 | 31638 ft | 430 kts | 195° |
| 2026-04-14 10:32 | 48.69430 | 8.31761 | 31917 ft | 432 kts | 195° |
| 2026-04-14 10:32 | 48.66508 | 8.30692 | 32223 ft | 433 kts | 195° |
| 2026-04-14 10:33 | 48.63573 | 8.29622 | 32513 ft | 434 kts | 195° |
| 2026-04-14 10:33 | 48.60636 | 8.28555 | 32799 ft | 434 kts | 195° |
| 2026-04-14 10:33 | 48.57693 | 8.27485 | 33087 ft | 435 kts | 195° |
| 2026-04-14 10:33 | 48.54751 | 8.26418 | 33371 ft | 436 kts | 195° |
| 2026-04-14 10:34 | 48.48862 | 8.24284 | 33908 ft | 438 kts | 195° |
| 2026-04-14 10:34 | 48.45888 | 8.23201 | 34166 ft | 439 kts | 195° |
| 2026-04-14 10:34 | 48.42909 | 8.22112 | 34394 ft | 439 kts | 195° |
| 2026-04-14 10:35 | 48.39945 | 8.21028 | 34618 ft | 440 kts | 195° |
| 2026-04-14 10:35 | 48.36961 | 8.19939 | 34851 ft | 440 kts | 195° |
| 2026-04-14 10:35 | 48.33977 | 8.18852 | 35043 ft | 441 kts | 195° |
| 2026-04-14 10:35 | 48.30997 | 8.17767 | 35204 ft | 442 kts | 195° |
| 2026-04-14 10:36 | 48.28008 | 8.16679 | 35228 ft | 441 kts | 195° |
| 2026-04-14 10:36 | 48.22255 | 8.13767 | 35206 ft | 439 kts | 207° |
| 2026-04-14 10:37 | 48.16785 | 8.09683 | 35195 ft | 438 kts | 208° |
| 2026-04-14 10:37 | 48.11333 | 8.05619 | 35185 ft | 439 kts | 207° |
| 2026-04-14 10:38 | 48.05841 | 8.01569 | 35190 ft | 439 kts | 207° |
| 2026-04-14 10:38 | 48.00352 | 7.97537 | 35188 ft | 439 kts | 207° |
| 2026-04-14 10:39 | 47.94863 | 7.93511 | 35179 ft | 439 kts | 207° |
| 2026-04-14 10:39 | 47.89368 | 7.89493 | 35183 ft | 440 kts | 207° |
| 2026-04-14 10:40 | 47.83869 | 7.85479 | 35181 ft | 440 kts | 207° |
| 2026-04-14 10:40 | 47.78365 | 7.81470 | 35188 ft | 440 kts | 207° |
| 2026-04-14 10:41 | 47.72855 | 7.77465 | 35189 ft | 440 kts | 207° |
| 2026-04-14 10:41 | 47.67378 | 7.73497 | 35196 ft | 440 kts | 207° |
| 2026-04-14 10:42 | 47.61878 | 7.69522 | 35200 ft | 440 kts | 207° |
| 2026-04-14 10:42 | 47.56346 | 7.65531 | 35201 ft | 440 kts | 207° |
| 2026-04-14 10:43 | 47.50829 | 7.61562 | 35202 ft | 441 kts | 207° |
| 2026-04-14 10:43 | 47.45333 | 7.57617 | 35197 ft | 441 kts | 207° |
| 2026-04-14 10:44 | 47.39798 | 7.53665 | 35190 ft | 441 kts | 207° |
| 2026-04-14 10:44 | 47.34258 | 7.49707 | 35169 ft | 442 kts | 207° |
| 2026-04-14 10:45 | 47.28713 | 7.45747 | 35168 ft | 444 kts | 207° |
| 2026-04-14 10:45 | 47.23129 | 7.41768 | 35170 ft | 446 kts | 207° |
| 2026-04-14 10:46 | 47.17640 | 7.37652 | 35166 ft | 444 kts | 215° |
| 2026-04-14 10:46 | 47.15260 | 7.34791 | 35167 ft | 441 kts | 229° |
| 2026-04-14 10:46 | 47.13282 | 7.31364 | 35172 ft | 440 kts | 233° |
| 2026-04-14 10:47 | 47.09523 | 7.24266 | 35153 ft | 440 kts | 234° |
| 2026-04-14 10:47 | 47.05719 | 7.17211 | 35150 ft | 440 kts | 233° |
| 2026-04-14 10:48 | 47.01887 | 7.10183 | 35160 ft | 441 kts | 233° |
| 2026-04-14 10:48 | 46.98057 | 7.03177 | 35164 ft | 440 kts | 233° |
| 2026-04-14 10:49 | 46.94237 | 6.96217 | 35161 ft | 441 kts | 233° |
| 2026-04-14 10:49 | 46.90373 | 6.89186 | 35171 ft | 444 kts | 234° |
| 2026-04-14 10:50 | 46.86491 | 6.82159 | 35172 ft | 444 kts | 233° |
| 2026-04-14 10:50 | 46.82605 | 6.75138 | 35169 ft | 444 kts | 233° |
| 2026-04-14 10:51 | 46.78708 | 6.68113 | 35163 ft | 444 kts | 233° |
| 2026-04-14 10:51 | 46.74800 | 6.61092 | 35149 ft | 447 kts | 233° |
| 2026-04-14 10:52 | 46.70898 | 6.54103 | 35137 ft | 447 kts | 233° |
| 2026-04-14 10:52 | 46.66965 | 6.47067 | 35132 ft | 448 kts | 233° |
| 2026-04-14 10:53 | 46.63024 | 6.40041 | 35138 ft | 448 kts | 233° |
| 2026-04-14 10:53 | 46.59069 | 6.33007 | 35139 ft | 448 kts | 233° |
| 2026-04-14 10:54 | 46.55118 | 6.26000 | 35142 ft | 448 kts | 233° |
| 2026-04-14 10:54 | 46.51171 | 6.19006 | 35143 ft | 448 kts | 233° |
| 2026-04-14 10:55 | 46.47211 | 6.12009 | 35147 ft | 448 kts | 233° |
| 2026-04-14 10:55 | 46.43274 | 6.05077 | 35150 ft | 448 kts | 233° |
| 2026-04-14 10:56 | 46.39298 | 5.98094 | 35138 ft | 450 kts | 234° |
| 2026-04-14 10:56 | 46.35293 | 5.91081 | 35148 ft | 451 kts | 233° |
| 2026-04-14 10:57 | 46.31283 | 5.84074 | 35143 ft | 451 kts | 233° |
| 2026-04-14 10:57 | 46.27293 | 5.77119 | 35145 ft | 452 kts | 233° |
| 2026-04-14 10:58 | 46.23265 | 5.70156 | 35149 ft | 452 kts | 233° |
| 2026-04-14 10:58 | 46.19247 | 5.63160 | 35153 ft | 452 kts | 233° |
| 2026-04-14 10:59 | 46.15909 | 5.57367 | 35151 ft | 452 kts | 234° |
| 2026-04-14 10:59 | 46.12198 | 5.50081 | 35159 ft | 451 kts | 239° |
| 2026-04-14 11:00 | 46.08637 | 5.42629 | 35159 ft | 451 kts | 239° |
| 2026-04-14 11:00 | 46.05068 | 5.35193 | 35166 ft | 451 kts | 239° |
| 2026-04-14 11:01 | 46.01492 | 5.27775 | 35176 ft | 451 kts | 239° |
| 2026-04-14 11:01 | 45.97904 | 5.20348 | 35183 ft | 451 kts | 239° |
| 2026-04-14 11:02 | 45.94331 | 5.12985 | 35161 ft | 452 kts | 239° |
| 2026-04-14 11:02 | 45.90722 | 5.05553 | 35166 ft | 454 kts | 239° |
| 2026-04-14 11:03 | 45.87096 | 4.98108 | 35165 ft | 455 kts | 239° |
| 2026-04-14 11:03 | 45.83458 | 4.90661 | 35167 ft | 456 kts | 239° |
| 2026-04-14 11:04 | 45.79812 | 4.83223 | 35174 ft | 456 kts | 239° |
| 2026-04-14 11:04 | 45.76162 | 4.75788 | 35170 ft | 456 kts | 239° |
| 2026-04-14 11:05 | 45.72503 | 4.68354 | 35154 ft | 457 kts | 240° |
| 2026-04-14 11:05 | 45.68841 | 4.60935 | 35171 ft | 459 kts | 239° |
| 2026-04-14 11:06 | 45.65147 | 4.53472 | 35173 ft | 460 kts | 239° |
| 2026-04-14 11:06 | 45.61447 | 4.46014 | 35171 ft | 460 kts | 239° |
| 2026-04-14 11:07 | 45.57745 | 4.38563 | 35173 ft | 460 kts | 239° |
| 2026-04-14 11:07 | 45.54030 | 4.31111 | 35171 ft | 460 kts | 239° |
| 2026-04-14 11:08 | 45.50331 | 4.23716 | 35158 ft | 461 kts | 240° |
| 2026-04-14 11:08 | 45.46586 | 4.16257 | 35171 ft | 462 kts | 240° |
| 2026-04-14 11:09 | 45.42842 | 4.08810 | 35170 ft | 462 kts | 240° |
| 2026-04-14 11:09 | 45.39089 | 4.01368 | 35176 ft | 462 kts | 239° |
| 2026-04-14 11:10 | 45.33480 | 3.90285 | 35168 ft | 462 kts | 239° |
| 2026-04-14 11:10 | 45.29717 | 3.82874 | 35144 ft | 462 kts | 240° |
| 2026-04-14 11:11 | 45.25942 | 3.75456 | 35149 ft | 463 kts | 240° |
| 2026-04-14 11:11 | 45.22252 | 3.67968 | 35163 ft | 462 kts | 241° |
| 2026-04-14 11:12 | 45.18591 | 3.60537 | 35168 ft | 461 kts | 240° |
| 2026-04-14 11:12 | 45.14913 | 3.53095 | 35163 ft | 461 kts | 240° |
| 2026-04-14 11:13 | 45.11222 | 3.45649 | 35166 ft | 462 kts | 240° |
| 2026-04-14 11:13 | 45.07526 | 3.38208 | 35169 ft | 462 kts | 240° |
| 2026-04-14 11:14 | 45.03814 | 3.30756 | 35170 ft | 462 kts | 240° |
| 2026-04-14 11:14 | 45.00102 | 3.23326 | 35169 ft | 462 kts | 240° |
| 2026-04-14 11:15 | 44.96389 | 3.15921 | 35170 ft | 462 kts | 240° |
| 2026-04-14 11:15 | 44.92673 | 3.08520 | 35164 ft | 462 kts | 240° |
| 2026-04-14 11:16 | 44.88975 | 3.01152 | 35147 ft | 462 kts | 241° |
| 2026-04-14 11:16 | 44.85247 | 2.93749 | 35161 ft | 462 kts | 241° |
| 2026-04-14 11:17 | 44.81722 | 2.86186 | 35159 ft | 461 kts | 243° |
| 2026-04-14 11:17 | 44.78230 | 2.78596 | 35158 ft | 461 kts | 243° |
| 2026-04-14 11:18 | 44.74757 | 2.71071 | 35158 ft | 461 kts | 243° |
| 2026-04-14 11:18 | 44.71255 | 2.63507 | 35136 ft | 462 kts | 244° |
| 2026-04-14 11:19 | 44.67745 | 2.55950 | 35148 ft | 462 kts | 244° |
| 2026-04-14 11:19 | 44.64226 | 2.48390 | 35160 ft | 461 kts | 244° |
| 2026-04-14 11:20 | 44.60704 | 2.40847 | 35170 ft | 462 kts | 244° |
| 2026-04-14 11:20 | 44.57178 | 2.33313 | 35165 ft | 462 kts | 244° |
| 2026-04-14 11:21 | 44.53665 | 2.25826 | 35155 ft | 463 kts | 244° |
| 2026-04-14 11:21 | 44.50112 | 2.18274 | 35167 ft | 464 kts | 244° |
| 2026-04-14 11:22 | 44.46560 | 2.10737 | 35180 ft | 463 kts | 244° |
| 2026-04-14 11:22 | 44.42996 | 2.03209 | 35178 ft | 463 kts | 244° |
| 2026-04-14 11:23 | 44.39447 | 1.95733 | 35186 ft | 464 kts | 244° |
| 2026-04-14 11:23 | 44.35847 | 1.88155 | 35172 ft | 465 kts | 244° |
| 2026-04-14 11:24 | 44.32298 | 1.80707 | 35196 ft | 463 kts | 244° |
| 2026-04-14 11:24 | 44.28748 | 1.73209 | 35199 ft | 462 kts | 245° |
| 2026-04-14 11:25 | 44.25279 | 1.65653 | 35205 ft | 462 kts | 245° |
| 2026-04-14 11:25 | 44.21800 | 1.58114 | 35206 ft | 462 kts | 245° |
| 2026-04-14 11:26 | 44.18315 | 1.50570 | 35193 ft | 463 kts | 245° |
| 2026-04-14 11:26 | 44.14825 | 1.43015 | 35210 ft | 463 kts | 245° |
| 2026-04-14 11:27 | 44.11360 | 1.35532 | 35225 ft | 463 kts | 245° |
| 2026-04-14 11:27 | 44.07855 | 1.27997 | 35224 ft | 463 kts | 245° |
| 2026-04-14 11:28 | 44.04351 | 1.20455 | 35228 ft | 464 kts | 245° |
| 2026-04-14 11:28 | 44.00835 | 1.12933 | 35207 ft | 464 kts | 245° |
| 2026-04-14 11:29 | 43.97310 | 1.05394 | 35228 ft | 466 kts | 245° |
| 2026-04-14 11:29 | 43.93788 | 0.97917 | 35232 ft | 466 kts | 244° |
| 2026-04-14 11:30 | 43.90237 | 0.90367 | 35237 ft | 466 kts | 244° |
| 2026-04-14 11:30 | 43.86833 | 0.82754 | 35241 ft | 464 kts | 247° |
| 2026-04-14 11:31 | 43.83530 | 0.75069 | 35205 ft | 464 kts | 247° |
| 2026-04-14 11:31 | 43.80235 | 0.67422 | 35240 ft | 465 kts | 247° |
| 2026-04-14 11:32 | 43.76920 | 0.59733 | 35244 ft | 465 kts | 247° |
| 2026-04-14 11:32 | 43.73590 | 0.52052 | 35234 ft | 465 kts | 247° |
| 2026-04-14 11:33 | 43.70258 | 0.44376 | 35233 ft | 467 kts | 247° |
| 2026-04-14 11:34 | 43.65213 | 0.32815 | 35219 ft | 468 kts | 248° |
| 2026-04-14 11:34 | 43.61832 | 0.25103 | 35233 ft | 469 kts | 247° |
| 2026-04-14 11:35 | 43.58447 | 0.17408 | 35234 ft | 469 kts | 247° |
| 2026-04-14 11:35 | 43.55073 | 0.09749 | 35232 ft | 470 kts | 247° |
| 2026-04-14 11:36 | 43.51678 | 0.02053 | 35237 ft | 469 kts | 247° |
| 2026-04-14 11:36 | 43.48281 | -0.05645 | 35211 ft | 469 kts | 248° |
| 2026-04-14 11:37 | 43.44888 | -0.13318 | 35232 ft | 469 kts | 248° |
| 2026-04-14 11:37 | 43.41497 | -0.20982 | 35234 ft | 469 kts | 247° |
| 2026-04-14 11:38 | 43.38109 | -0.28595 | 35239 ft | 469 kts | 247° |
| 2026-04-14 11:38 | 43.34697 | -0.36250 | 35230 ft | 469 kts | 247° |
| 2026-04-14 11:39 | 43.31280 | -0.43883 | 35226 ft | 469 kts | 247° |
| 2026-04-14 11:39 | 43.27855 | -0.51505 | 35228 ft | 469 kts | 247° |
| 2026-04-14 11:40 | 43.24448 | -0.59078 | 35238 ft | 468 kts | 247° |
| 2026-04-14 11:40 | 43.21011 | -0.66685 | 35218 ft | 468 kts | 247° |
| 2026-04-14 11:41 | 43.17573 | -0.74280 | 35229 ft | 468 kts | 247° |
| 2026-04-14 11:41 | 43.14142 | -0.81847 | 35211 ft | 467 kts | 246° |
| 2026-04-14 11:42 | 43.10707 | -0.89409 | 35218 ft | 467 kts | 246° |
| 2026-04-14 11:42 | 43.07291 | -0.96887 | 35217 ft | 466 kts | 246° |
| 2026-04-14 11:43 | 43.03849 | -1.04408 | 35216 ft | 466 kts | 246° |
| 2026-04-14 11:43 | 43.00410 | -1.11916 | 35209 ft | 466 kts | 246° |
| 2026-04-14 11:44 | 42.96954 | -1.19433 | 35198 ft | 467 kts | 246° |
| 2026-04-14 11:44 | 42.93496 | -1.26931 | 35214 ft | 466 kts | 246° |
| 2026-04-14 11:45 | 42.90622 | -1.33158 | 35205 ft | 465 kts | 246° |
| 2026-04-14 11:45 | 42.86598 | -1.41846 | 35218 ft | 466 kts | 246° |
| 2026-04-14 11:46 | 42.83711 | -1.48064 | 35220 ft | 467 kts | 246° |
| 2026-04-14 11:46 | 42.80230 | -1.55537 | 35210 ft | 466 kts | 246° |
| 2026-04-14 11:47 | 42.76762 | -1.62961 | 35228 ft | 464 kts | 246° |
| 2026-04-14 11:47 | 42.73452 | -1.70453 | 35232 ft | 454 kts | 254° |
| 2026-04-14 11:48 | 42.71445 | -1.78393 | 35229 ft | 443 kts | 263° |
| 2026-04-14 11:48 | 42.69710 | -1.86429 | 35218 ft | 443 kts | 263° |
| 2026-04-14 11:49 | 42.67913 | -1.94444 | 35184 ft | 442 kts | 262° |
| 2026-04-14 11:49 | 42.66103 | -2.02408 | 35208 ft | 440 kts | 262° |
| 2026-04-14 11:50 | 42.64295 | -2.10354 | 35217 ft | 440 kts | 262° |
| 2026-04-14 11:50 | 42.62466 | -2.18303 | 35222 ft | 441 kts | 261° |
| 2026-04-14 11:51 | 42.59581 | -2.30126 | 35202 ft | 441 kts | 261° |
| 2026-04-14 11:51 | 42.57659 | -2.38017 | 35228 ft | 439 kts | 261° |
| 2026-04-14 11:52 | 42.55740 | -2.45885 | 35227 ft | 439 kts | 261° |
| 2026-04-14 11:52 | 42.53815 | -2.53745 | 35226 ft | 439 kts | 261° |
| 2026-04-14 11:53 | 42.51882 | -2.61614 | 35230 ft | 439 kts | 261° |
| 2026-04-14 11:53 | 42.49942 | -2.69481 | 35205 ft | 440 kts | 260° |
| 2026-04-14 11:54 | 42.48008 | -2.77280 | 35219 ft | 439 kts | 260° |
| 2026-04-14 11:54 | 42.46066 | -2.85109 | 35221 ft | 438 kts | 260° |
| 2026-04-14 11:55 | 42.43742 | -2.92822 | 35215 ft | 445 kts | 253° |
| 2026-04-14 11:55 | 42.41136 | -3.00445 | 35216 ft | 446 kts | 253° |
| 2026-04-14 11:56 | 42.38533 | -3.08056 | 35194 ft | 445 kts | 253° |
| 2026-04-14 11:56 | 42.35942 | -3.15637 | 35208 ft | 444 kts | 253° |
| 2026-04-14 11:57 | 42.33363 | -3.23164 | 35224 ft | 444 kts | 253° |
| 2026-04-14 11:57 | 42.30761 | -3.30731 | 35239 ft | 444 kts | 253° |
| 2026-04-14 11:58 | 42.28147 | -3.38317 | 35246 ft | 445 kts | 253° |
| 2026-04-14 11:58 | 42.25537 | -3.45870 | 35236 ft | 444 kts | 253° |
| 2026-04-14 11:59 | 42.22915 | -3.53436 | 35248 ft | 443 kts | 253° |
| 2026-04-14 11:59 | 42.20296 | -3.60971 | 35252 ft | 443 kts | 253° |
| 2026-04-14 12:00 | 42.17694 | -3.68440 | 35229 ft | 443 kts | 252° |
| 2026-04-14 12:00 | 42.15068 | -3.75953 | 35228 ft | 443 kts | 252° |
| 2026-04-14 12:01 | 42.12442 | -3.83454 | 35206 ft | 443 kts | 252° |
| 2026-04-14 12:01 | 42.09810 | -3.90944 | 35223 ft | 441 kts | 252° |
| 2026-04-14 12:02 | 42.07187 | -3.98398 | 35227 ft | 441 kts | 252° |
| 2026-04-14 12:02 | 42.04556 | -4.05847 | 35229 ft | 440 kts | 252° |
| 2026-04-14 12:03 | 42.01997 | -4.13311 | 35227 ft | 438 kts | 255° |
| 2026-04-14 12:03 | 41.99615 | -4.20842 | 35228 ft | 437 kts | 255° |
| 2026-04-14 12:04 | 41.97232 | -4.28368 | 35231 ft | 438 kts | 255° |
| 2026-04-14 12:04 | 41.94834 | -4.35893 | 35232 ft | 438 kts | 255° |
| 2026-04-14 12:05 | 41.92454 | -4.43355 | 35231 ft | 437 kts | 255° |
| 2026-04-14 12:05 | 41.90047 | -4.50869 | 35231 ft | 438 kts | 255° |
| 2026-04-14 12:06 | 41.87638 | -4.58373 | 35213 ft | 438 kts | 254° |
| 2026-04-14 12:06 | 41.85226 | -4.65859 | 35226 ft | 436 kts | 254° |
| 2026-04-14 12:07 | 41.82819 | -4.73323 | 35251 ft | 436 kts | 254° |
| 2026-04-14 12:07 | 41.80400 | -4.80792 | 35259 ft | 436 kts | 254° |
| 2026-04-14 12:08 | 41.77973 | -4.88264 | 35261 ft | 436 kts | 254° |
| 2026-04-14 12:08 | 41.75563 | -4.95668 | 35235 ft | 436 kts | 253° |
| 2026-04-14 12:09 | 41.73139 | -5.03095 | 35254 ft | 435 kts | 253° |
| 2026-04-14 12:09 | 41.70709 | -5.10519 | 35255 ft | 435 kts | 253° |
| 2026-04-14 12:10 | 41.68275 | -5.17934 | 35248 ft | 435 kts | 253° |
| 2026-04-14 12:10 | 41.65840 | -5.25335 | 35242 ft | 435 kts | 253° |
| 2026-04-14 12:11 | 41.63411 | -5.32695 | 35242 ft | 436 kts | 253° |
| 2026-04-14 12:11 | 41.60961 | -5.40102 | 35234 ft | 434 kts | 253° |
| 2026-04-14 12:12 | 41.58511 | -5.47493 | 35237 ft | 434 kts | 252° |
| 2026-04-14 12:12 | 41.56064 | -5.54843 | 35238 ft | 434 kts | 252° |
| 2026-04-14 12:13 | 41.53653 | -5.62183 | 35240 ft | 431 kts | 256° |
| 2026-04-14 12:13 | 41.52868 | -5.66002 | 35239 ft | 421 kts | 267° |
| 2026-04-14 12:13 | 41.52528 | -5.69867 | 35244 ft | 418 kts | 271° |
| 2026-04-14 12:14 | 41.52025 | -5.77594 | 35236 ft | 417 kts | 271° |
| 2026-04-14 12:14 | 41.51489 | -5.85311 | 35246 ft | 417 kts | 270° |
| 2026-04-14 12:15 | 41.50930 | -5.92967 | 35247 ft | 418 kts | 270° |
| 2026-04-14 12:15 | 41.50356 | -6.00683 | 35247 ft | 418 kts | 270° |
| 2026-04-14 12:16 | 41.49782 | -6.08396 | 35249 ft | 418 kts | 270° |
| 2026-04-14 12:16 | 41.49203 | -6.16105 | 35241 ft | 416 kts | 270° |
| 2026-04-14 12:17 | 41.48621 | -6.23773 | 35254 ft | 416 kts | 270° |
| 2026-04-14 12:17 | 41.48345 | -6.31418 | 35246 ft | 410 kts | 277° |
| 2026-04-14 12:18 | 41.48634 | -6.39004 | 35247 ft | 410 kts | 278° |
| 2026-04-14 12:18 | 41.48897 | -6.46603 | 35249 ft | 410 kts | 277° |
| 2026-04-14 12:19 | 41.49140 | -6.54196 | 35253 ft | 408 kts | 277° |
| 2026-04-14 12:19 | 41.49370 | -6.61698 | 34876 ft | 406 kts | 277° |
| 2026-04-14 12:20 | 41.49484 | -6.65478 | 34087 ft | 408 kts | 276° |
| 2026-04-14 12:20 | 41.49596 | -6.69234 | 33473 ft | 403 kts | 276° |
| 2026-04-14 12:20 | 41.49707 | -6.72991 | 32542 ft | 407 kts | 276° |
| 2026-04-14 12:20 | 41.49819 | -6.76760 | 31815 ft | 406 kts | 276° |
| 2026-04-14 12:21 | 41.49926 | -6.80512 | 31224 ft | 402 kts | 276° |
| 2026-04-14 12:21 | 41.50031 | -6.84226 | 30691 ft | 397 kts | 276° |
| 2026-04-14 12:21 | 41.50134 | -6.87880 | 30149 ft | 391 kts | 276° |
| 2026-04-14 12:21 | 41.50233 | -6.91440 | 29562 ft | 387 kts | 276° |
| 2026-04-14 12:22 | 41.50334 | -6.95041 | 29003 ft | 381 kts | 276° |
| 2026-04-14 12:22 | 41.50429 | -6.98513 | 28484 ft | 376 kts | 276° |
| 2026-04-14 12:22 | 41.50523 | -7.01976 | 27980 ft | 371 kts | 276° |
| 2026-04-14 12:22 | 41.50615 | -7.05391 | 27512 ft | 365 kts | 276° |
| 2026-04-14 12:23 | 41.50704 | -7.08755 | 27013 ft | 361 kts | 276° |
| 2026-04-14 12:23 | 41.50793 | -7.12089 | 26510 ft | 358 kts | 275° |
| 2026-04-14 12:23 | 41.50880 | -7.15402 | 26031 ft | 355 kts | 275° |
| 2026-04-14 12:23 | 41.50965 | -7.18681 | 25566 ft | 351 kts | 275° |
| 2026-04-14 12:24 | 41.51049 | -7.21930 | 25087 ft | 349 kts | 275° |
| 2026-04-14 12:24 | 41.51129 | -7.25119 | 24611 ft | 349 kts | 276° |
| 2026-04-14 12:24 | 41.51210 | -7.28351 | 24141 ft | 348 kts | 276° |
| 2026-04-14 12:24 | 41.51289 | -7.31577 | 23647 ft | 348 kts | 276° |
| 2026-04-14 12:25 | 41.51368 | -7.34804 | 23099 ft | 347 kts | 276° |
| 2026-04-14 12:25 | 41.51445 | -7.38017 | 22580 ft | 345 kts | 276° |
| 2026-04-14 12:25 | 41.51521 | -7.41209 | 22074 ft | 344 kts | 275° |
| 2026-04-14 12:25 | 41.51594 | -7.44386 | 21584 ft | 342 kts | 275° |
| 2026-04-14 12:26 | 41.51668 | -7.47559 | 21103 ft | 341 kts | 275° |
| 2026-04-14 12:26 | 41.51740 | -7.50713 | 20645 ft | 339 kts | 275° |
| 2026-04-14 12:26 | 41.51810 | -7.53841 | 20200 ft | 336 kts | 275° |
| 2026-04-14 12:26 | 41.51880 | -7.56945 | 19755 ft | 335 kts | 275° |
| 2026-04-14 12:27 | 41.51949 | -7.60049 | 19317 ft | 333 kts | 275° |
| 2026-04-14 12:27 | 41.52015 | -7.63141 | 18875 ft | 333 kts | 275° |
| 2026-04-14 12:27 | 41.52081 | -7.66184 | 18453 ft | 331 kts | 275° |
| 2026-04-14 12:27 | 41.52200 | -7.69289 | 17978 ft | 330 kts | 276° |
| 2026-04-14 12:28 | 41.52351 | -7.72302 | 17529 ft | 329 kts | 277° |
| 2026-04-14 12:28 | 41.52507 | -7.75346 | 17106 ft | 329 kts | 276° |
| 2026-04-14 12:28 | 41.52663 | -7.78405 | 16701 ft | 329 kts | 276° |
| 2026-04-14 12:28 | 41.52814 | -7.81418 | 16306 ft | 323 kts | 276° |
| 2026-04-14 12:29 | 41.52962 | -7.84388 | 15921 ft | 316 kts | 276° |
| 2026-04-14 12:29 | 41.53106 | -7.87283 | 15546 ft | 310 kts | 276° |
| 2026-04-14 12:29 | 41.53245 | -7.90129 | 15162 ft | 304 kts | 276° |
| 2026-04-14 12:29 | 41.53383 | -7.92933 | 14785 ft | 302 kts | 276° |
| 2026-04-14 12:30 | 41.53521 | -7.95735 | 14416 ft | 304 kts | 276° |
| 2026-04-14 12:30 | 41.53658 | -7.98530 | 14036 ft | 306 kts | 276° |
| 2026-04-14 12:30 | 41.53797 | -8.01371 | 13614 ft | 308 kts | 276° |
| 2026-04-14 12:30 | 41.53936 | -8.04245 | 13202 ft | 309 kts | 275° |
| 2026-04-14 12:31 | 41.54074 | -8.07112 | 12815 ft | 310 kts | 275° |
| 2026-04-14 12:31 | 41.54210 | -8.09984 | 12416 ft | 308 kts | 275° |
| 2026-04-14 12:31 | 41.54344 | -8.12807 | 12013 ft | 302 kts | 275° |
| 2026-04-14 12:31 | 41.54475 | -8.15580 | 11616 ft | 297 kts | 275° |
| 2026-04-14 12:32 | 41.54601 | -8.18275 | 11325 ft | 290 kts | 274° |
| 2026-04-14 12:32 | 41.54725 | -8.20936 | 10977 ft | 286 kts | 274° |
| 2026-04-14 12:32 | 41.54809 | -8.22715 | 10712 ft | 284 kts | 274° |
| 2026-04-14 12:32 | 41.54969 | -8.26181 | 10197 ft | 283 kts | 274° |
| 2026-04-14 12:33 | 41.55090 | -8.28815 | 9775 ft | 284 kts | 274° |
| 2026-04-14 12:33 | 41.55169 | -8.30549 | 9510 ft | 281 kts | 274° |
| 2026-04-14 12:33 | 41.55287 | -8.33142 | 9097 ft | 277 kts | 273° |
| 2026-04-14 12:33 | 41.55404 | -8.35697 | 8700 ft | 276 kts | 273° |
| 2026-04-14 12:34 | 41.55454 | -8.38264 | 8322 ft | 277 kts | 267° |
| 2026-04-14 12:34 | 41.55297 | -8.40827 | 7870 ft | 277 kts | 264° |
| 2026-04-14 12:34 | 41.55110 | -8.43378 | 7422 ft | 276 kts | 264° |
| 2026-04-14 12:34 | 41.54924 | -8.45925 | 6988 ft | 274 kts | 264° |
| 2026-04-14 12:35 | 41.54741 | -8.48447 | 6576 ft | 271 kts | 264° |
| 2026-04-14 12:35 | 41.54562 | -8.50943 | 6160 ft | 269 kts | 264° |
| 2026-04-14 12:35 | 41.54385 | -8.53417 | 5763 ft | 268 kts | 264° |
| 2026-04-14 12:35 | 41.54205 | -8.55911 | 5384 ft | 268 kts | 264° |
| 2026-04-14 12:36 | 41.54031 | -8.58366 | 5016 ft | 264 kts | 264° |
| 2026-04-14 12:36 | 41.53856 | -8.60802 | 4619 ft | 261 kts | 264° |
| 2026-04-14 12:36 | 41.53629 | -8.63193 | 4233 ft | 259 kts | 259° |
| 2026-04-14 12:36 | 41.53285 | -8.65541 | 4009 ft | 253 kts | 258° |
| 2026-04-14 12:37 | 41.52947 | -8.67776 | 3969 ft | 237 kts | 257° |
| 2026-04-14 12:37 | 41.52636 | -8.69847 | 3974 ft | 226 kts | 258° |
| 2026-04-14 12:37 | 41.52292 | -8.71902 | 3984 ft | 227 kts | 252° |
| 2026-04-14 12:37 | 41.51519 | -8.73644 | 3963 ft | 211 kts | 223° |
| 2026-04-14 12:38 | 41.48864 | -8.74614 | 3966 ft | 205 kts | 175° |
| 2026-04-14 12:38 | 41.47484 | -8.74168 | 3619 ft | 204 kts | 164° |
| 2026-04-14 12:38 | 41.46097 | -8.73746 | 3281 ft | 205 kts | 169° |
| 2026-04-14 12:39 | 41.44697 | -8.73361 | 3200 ft | 203 kts | 170° |
| 2026-04-14 12:39 | 41.43374 | -8.73009 | 3113 ft | 187 kts | 171° |
| 2026-04-14 12:39 | 41.42104 | -8.72674 | 2993 ft | 185 kts | 171° |
| 2026-04-14 12:39 | 41.40838 | -8.72341 | 2830 ft | 185 kts | 170° |
| 2026-04-14 12:40 | 41.39578 | -8.72009 | 2626 ft | 185 kts | 170° |
| 2026-04-14 12:40 | 41.38321 | -8.71678 | 2407 ft | 183 kts | 170° |
| 2026-04-14 12:40 | 41.37076 | -8.71350 | 2183 ft | 183 kts | 171° |
| 2026-04-14 12:40 | 41.35833 | -8.71023 | 1965 ft | 181 kts | 170° |
| 2026-04-14 12:41 | 41.34599 | -8.70699 | 1813 ft | 178 kts | 170° |
| 2026-04-14 12:41 | 41.33417 | -8.70388 | 1579 ft | 167 kts | 170° |
| 2026-04-14 12:41 | 41.32316 | -8.70099 | 1376 ft | 154 kts | 170° |
| 2026-04-14 12:41 | 41.31374 | -8.69853 | 1141 ft | 131 kts | 171° |
| 2026-04-14 12:42 | 41.30482 | -8.69617 | 972 ft | 130 kts | 171° |
| 2026-04-14 12:42 | 41.29599 | -8.69365 | 826 ft | 130 kts | 171° |
| 2026-04-14 12:42 | 41.28716 | -8.69140 | 650 ft | 128 kts | 172° |
| 2026-04-14 12:42 | 41.27837 | -8.68916 | 500 ft | 129 kts | 171° |
| 2026-04-14 12:43 | 41.26960 | -8.68682 | 348 ft | 129 kts | 172° |
| 2026-04-14 12:43 | 41.26081 | -8.68457 | 222 ft | 129 kts | 172° |
| 2026-04-14 12:43 | 41.25231 | -8.68245 | 191 ft | 113 kts | 167° |
| 2026-04-14 12:43 | 41.24670 | -8.68090 | 208 ft | 53 kts | 169° |
| 2026-04-14 12:44 | 41.24459 | -8.68035 | 213 ft | 25 kts | 169° |
| 2026-04-14 12:44 | 41.24256 | -8.67981 | 225 ft | 37 kts | 169° |
| 2026-04-14 12:44 | 41.24006 | -8.67918 | 224 ft | 26 kts | 169° |
| 2026-04-14 12:45 | 41.23903 | -8.67736 | 231 ft | 13 kts | 79° |
| 2026-04-14 12:45 | 41.23921 | -8.67618 | 238 ft | 12 kts | 79° |
| 2026-04-14 12:45 | 41.23922 | -8.67610 | 238 ft | 0 kts | 79° |
| 2026-04-14 12:45 | 41.23923 | -8.67608 | 238 ft | 2 kts | 79° |
| 2026-04-14 12:46 | 41.23929 | -8.67554 | 241 ft | 9 kts | 94° |
| 2026-04-14 12:46 | 41.23876 | -8.67489 | 244 ft | 13 kts | 169° |
| 2026-04-14 12:46 | 41.23778 | -8.67465 | 244 ft | 15 kts | 169° |
| 2026-04-14 12:46 | 41.23752 | -8.67452 | 244 ft | 2 kts | 129° |
| 2026-04-14 12:47 | 41.23737 | -8.67426 | 245 ft | 5 kts | 126° |
| 2026-04-14 12:47 | 41.23707 | -8.67368 | 247 ft | 10 kts | 128° |
| 2026-04-14 12:47 | 41.23651 | -8.67337 | 247 ft | 7 kts | 168° |
| 2026-04-14 12:47 | 41.23634 | -8.67277 | 250 ft | 6 kts | 78° |
| 2026-04-14 12:48 | 41.23641 | -8.67237 | 251 ft | 1 kts | 77° |